Terminal Aerodrome Forecast
Issued by NWS

Home | Current Version | Previous Version | Text Only | Print | Product List | Glossary Off
Versions: 1 2 3 4 5 6 7 8 9 10 11 12 13 14 15 16 17 18 19 20

000
FTUS43 KBIS 232300
TAFMOT
TAF
KMOT 232339Z 2400/2424 28010KT P6SM BKN013 OVC070
     FM241000 20005KT P6SM VCFG SCT020 SCT080
     FM241400 16007KT P6SM BKN080=

USA.gov is the U.S. government's official web portal to all federal, state and local government web resources and services.